createdAt,value
2022-10-21T00:00:36.086Z,100683.63
2022-10-21T00:03:03.326Z,100694.00
2022-10-21T00:05:30.479Z,100675.03
2022-10-21T00:07:58.461Z,100670.75
2022-10-21T00:10:25.589Z,100677.66
2022-10-21T00:12:52.624Z,100671.66
2022-10-21T00:15:19.738Z,100669.03
2022-10-21T00:17:46.805Z,100675.09
2022-10-21T00:20:13.911Z,100677.69
2022-10-21T00:22:41.153Z,100675.09
2022-10-21T00:25:09.133Z,100685.53
2022-10-21T00:27:36.488Z,100676.88
2022-10-21T00:30:05.985Z,100679.50
2022-10-21T00:32:33.195Z,100689.03
2022-10-21T00:35:00.409Z,100700.28
2022-10-21T00:37:31.310Z,100705.50
2022-10-21T00:39:59.362Z,100699.47
2022-10-21T00:42:39.598Z,100696.84
2022-10-21T00:45:09.249Z,100689.94
2022-10-21T00:47:58.679Z,100676.97
2022-10-21T00:50:53.675Z,100675.25
2022-10-21T00:53:22.019Z,100660.56
2022-10-21T00:55:56.869Z,100664.91
2022-10-21T00:58:28.539Z,100662.31
2022-10-21T01:00:57.749Z,100648.44
2022-10-21T01:03:26.476Z,100648.44
2022-10-21T01:05:56.341Z,100651.97
2022-10-21T01:08:24.511Z,100647.63
2022-10-21T01:10:52.814Z,100647.66
2022-10-21T01:13:50.679Z,100654.63
2022-10-21T01:16:44.337Z,100646.84
2022-10-21T01:19:52.073Z,100636.47
2022-10-21T01:22:37.310Z,100629.56
2022-10-21T01:25:25.757Z,100632.16
2022-10-21T01:28:16.211Z,100628.72
2022-10-21T01:30:53.567Z,100641.72
2022-10-21T01:33:27.390Z,100645.19
2022-10-21T01:36:13.954Z,100637.41
2022-10-21T01:38:55.897Z,100631.34
2022-10-21T01:41:37.640Z,100628.75
2022-10-21T01:44:17.450Z,100620.09
2022-10-21T01:46:57.789Z,100624.44
2022-10-21T01:49:48.095Z,100611.41
2022-10-21T01:52:17.150Z,100607.94
2022-10-21T01:54:48.977Z,100616.59
2022-10-21T01:57:20.717Z,100608.78
2022-10-21T01:59:48.627Z,100604.44
2022-10-21T02:02:17.128Z,100608.72
2022-10-21T02:04:47.664Z,100607.88
2022-10-21T02:07:14.698Z,100603.53
2022-10-21T02:09:41.784Z,100598.31
2022-10-21T02:12:10.956Z,100590.50
2022-10-21T02:15:00.160Z,100595.72
2022-10-21T02:17:29.004Z,100587.91
2022-10-21T02:20:00.205Z,100580.97
2022-10-21T02:22:28.923Z,100586.19
2022-10-21T02:25:01.858Z,100577.50
2022-10-21T02:27:28.928Z,100577.53
2022-10-21T02:30:01.170Z,100575.75
2022-10-21T02:32:34.002Z,100564.50
2022-10-21T02:35:20.515Z,100563.56
2022-10-21T02:37:54.398Z,100558.38
2022-10-21T02:40:31.843Z,100554.91
2022-10-21T02:43:04.635Z,100550.53
2022-10-21T02:45:33.066Z,100548.78
2022-10-21T02:48:00.301Z,100556.59
2022-10-21T02:50:27.281Z,100544.44
2022-10-21T02:52:54.333Z,100547.88
2022-10-21T02:55:21.334Z,100563.47
2022-10-21T02:57:48.349Z,100566.06
2022-10-21T03:00:15.667Z,100557.38
2022-10-21T03:02:42.743Z,100567.75
2022-10-21T03:05:10.463Z,100556.47
2022-10-21T03:07:37.568Z,100546.06
2022-10-21T03:10:05.474Z,100559.03
2022-10-21T03:12:32.522Z,100555.59
2022-10-21T03:14:59.535Z,100554.72
2022-10-21T03:17:26.571Z,100543.44
2022-10-21T03:19:53.576Z,100551.22
2022-10-21T03:22:20.610Z,100549.50
2022-10-21T03:24:47.706Z,100552.06
2022-10-21T03:27:14.693Z,100545.97
2022-10-21T03:29:41.772Z,100564.16
2022-10-21T03:32:08.811Z,100562.41
2022-10-21T03:34:35.886Z,100553.72
2022-10-21T03:37:02.947Z,100558.06
2022-10-21T03:39:30.372Z,100556.31
2022-10-21T03:41:57.374Z,100555.47
2022-10-21T03:44:24.364Z,100558.91
2022-10-21T03:46:51.385Z,100552.88
2022-10-21T03:49:21.300Z,100540.75
2022-10-21T03:51:49.564Z,100541.59
2022-10-21T03:54:17.774Z,100536.38
2022-10-21T03:56:44.828Z,100532.03
2022-10-21T03:59:11.842Z,100525.06
2022-10-21T04:01:38.969Z,100520.78
2022-10-21T04:04:06.234Z,100514.69
2022-10-21T04:06:33.322Z,100517.28
2022-10-21T04:09:01.375Z,100511.25
2022-10-21T04:11:29.006Z,100504.25
2022-10-21T04:13:56.112Z,100505.97
2022-10-21T04:16:23.392Z,100511.09
2022-10-21T04:18:50.453Z,100506.78
2022-10-21T04:21:19.086Z,100509.38
2022-10-21T04:23:46.153Z,100522.34
2022-10-21T04:26:13.183Z,100521.44
2022-10-21T04:28:40.174Z,100516.22
2022-10-21T04:31:07.395Z,100533.53
2022-10-21T04:33:34.595Z,100525.69
2022-10-21T04:36:02.145Z,100521.41
2022-10-21T04:38:29.352Z,100527.44
2022-10-21T04:40:58.925Z,100537.75
2022-10-21T04:43:26.663Z,100536.91
2022-10-21T04:45:54.371Z,100530.00
2022-10-21T04:48:22.060Z,100541.22
2022-10-21T04:50:52.915Z,100534.31
2022-10-21T04:53:20.989Z,100539.47
2022-10-21T04:55:54.086Z,100532.56
2022-10-21T04:58:22.434Z,100536.88
2022-10-21T05:00:50.945Z,100542.00
2022-10-21T05:03:19.424Z,100537.75
2022-10-21T05:05:50.347Z,100536.09
2022-10-21T05:08:18.499Z,100529.13
2022-10-21T05:10:45.801Z,100536.06
2022-10-21T05:13:12.866Z,100537.72
2022-10-21T05:15:39.886Z,100535.94
2022-10-21T05:18:06.896Z,100532.47
2022-10-21T05:20:33.940Z,100535.94
2022-10-21T05:23:04.189Z,100542.91
2022-10-21T05:25:34.198Z,100534.22
2022-10-21T05:28:01.800Z,100539.41
2022-10-21T05:30:31.596Z,100544.56
2022-10-21T05:32:59.808Z,100539.38
2022-10-21T05:35:27.197Z,100538.47
2022-10-21T05:37:54.222Z,100532.41
2022-10-21T05:40:21.261Z,100530.66
2022-10-21T05:42:48.282Z,100533.19
2022-10-21T05:45:15.330Z,100521.88
2022-10-21T05:47:42.453Z,100525.38
2022-10-21T05:50:11.860Z,100527.91
2022-10-21T05:52:40.048Z,100533.09
2022-10-21T05:55:08.358Z,100535.63
2022-10-21T05:57:36.849Z,100542.56
2022-10-21T06:00:06.079Z,100539.09
2022-10-21T06:02:33.596Z,100537.31
2022-10-21T06:05:02.123Z,100525.25
2022-10-21T06:07:29.568Z,100524.38
2022-10-21T06:09:57.263Z,100523.47
2022-10-21T06:12:24.258Z,100522.56
2022-10-21T06:14:51.347Z,100525.16
2022-10-21T06:17:18.418Z,100524.19
2022-10-21T06:19:48.678Z,100515.59
2022-10-21T06:22:17.886Z,100519.06
2022-10-21T06:24:46.065Z,100513.06
2022-10-21T06:27:13.794Z,100510.44
2022-10-21T06:29:40.848Z,100506.91
2022-10-21T06:32:08.018Z,100514.63
2022-10-21T06:34:35.051Z,100524.09
2022-10-21T06:37:02.068Z,100524.94
2022-10-21T06:39:30.770Z,100526.69
2022-10-21T06:41:59.137Z,100528.38
2022-10-21T06:44:26.128Z,100531.84
2022-10-21T06:46:54.106Z,100515.41
2022-10-21T06:49:21.222Z,100509.44
2022-10-21T06:51:48.221Z,100520.66
2022-10-21T06:54:15.254Z,100542.31
2022-10-21T06:56:42.274Z,100544.91
2022-10-21T06:59:10.779Z,100550.03
2022-10-21T07:02:04.641Z,100552.63
2022-10-21T07:04:24.750Z,100550.09
2022-10-21T07:06:51.810Z,100550.09
2022-10-21T07:09:18.899Z,100554.50
2022-10-21T07:11:45.977Z,100546.75
2022-10-21T07:14:13.048Z,100537.31
2022-10-21T07:16:40.149Z,100533.88
2022-10-21T07:19:07.351Z,100539.97
2022-10-21T07:21:34.549Z,100546.06
2022-10-21T07:24:02.353Z,100543.50
2022-10-21T07:26:34.739Z,100544.41
2022-10-21T07:29:02.345Z,100548.72
2022-10-21T07:31:35.782Z,100553.97
2022-10-21T07:36:38.029Z,100553.22
2022-10-21T07:39:08.275Z,100544.59
2022-10-21T07:41:38.032Z,100544.66
2022-10-21T07:44:05.872Z,100551.63
2022-10-21T07:46:33.153Z,100549.88
2022-10-21T07:49:01.705Z,100549.97
2022-10-21T07:51:31.610Z,100559.53
2022-10-21T07:54:01.738Z,100564.75
2022-10-21T07:56:35.193Z,100578.66
2022-10-21T07:59:07.696Z,100570.00
2022-10-21T08:01:40.292Z,100589.13
2022-10-21T08:04:07.500Z,100591.75
2022-10-21T08:06:34.601Z,100577.91
2022-10-21T08:09:02.166Z,100585.78
2022-10-21T08:11:33.176Z,100582.38
2022-10-21T08:14:03.149Z,100585.00
2022-10-21T08:16:33.626Z,100586.78
2022-10-21T08:19:04.562Z,100580.72
2022-10-21T08:21:32.020Z,100585.97
2022-10-21T08:24:02.283Z,100592.06
2022-10-21T08:26:31.677Z,100578.22
2022-10-21T08:31:25.689Z,100580.88
2022-10-21T08:33:52.838Z,100573.06
2022-10-21T08:36:23.477Z,100581.75
2022-10-21T08:38:50.972Z,100580.88
2022-10-21T08:41:27.042Z,100572.25
2022-10-21T08:44:02.162Z,100559.28
2022-10-21T08:46:40.520Z,100552.34
2022-10-21T08:49:18.023Z,100549.75
2022-10-21T08:51:51.721Z,100554.09
2022-10-21T08:54:24.035Z,100552.34
2022-10-21T08:56:56.042Z,100549.78
2022-10-21T08:59:24.802Z,100556.72
2022-10-21T09:01:56.658Z,100553.25
2022-10-21T09:04:43.794Z,100561.03
2022-10-21T09:07:55.633Z,100561.94
2022-10-21T09:10:51.240Z,100558.47
2022-10-21T09:13:51.354Z,100574.09
2022-10-21T09:16:36.695Z,100582.75
2022-10-21T09:19:35.107Z,100588.88
2022-10-21T09:22:33.700Z,100590.59
2022-10-21T09:25:09.774Z,100580.22
2022-10-21T09:27:55.532Z,100568.97
2022-10-21T09:30:24.519Z,100569.00
2022-10-21T09:32:57.182Z,100589.78
2022-10-21T09:35:32.420Z,100573.31
2022-10-21T09:38:25.864Z,100586.34
2022-10-21T09:41:01.480Z,100587.25
2022-10-21T09:43:32.215Z,100580.34
2022-10-21T09:46:00.317Z,100589.88
2022-10-21T09:49:06.880Z,100607.19
2022-10-21T09:51:33.843Z,100584.69
2022-10-21T09:54:15.606Z,100592.47
2022-10-21T09:57:04.279Z,100597.69
2022-10-21T09:59:37.192Z,100592.50
2022-10-21T10:02:14.622Z,100592.50
2022-10-21T10:04:41.947Z,100581.22
2022-10-21T10:07:20.964Z,100594.25
2022-10-21T10:09:48.513Z,100598.56
2022-10-21T10:12:20.626Z,100585.56
2022-10-21T10:14:48.656Z,100585.56
2022-10-21T10:17:37.016Z,100591.63
2022-10-21T10:20:04.148Z,100582.97
2022-10-21T10:22:43.220Z,100589.91
2022-10-21T10:25:21.476Z,100589.91
2022-10-21T10:27:55.805Z,100588.16
2022-10-21T10:30:25.513Z,100589.88
2022-10-21T10:32:56.201Z,100591.63
2022-10-21T10:35:36.121Z,100591.59
2022-10-21T10:38:05.211Z,100589.88
2022-10-21T10:40:39.565Z,100595.09
2022-10-21T10:43:15.998Z,100595.97
2022-10-21T10:45:56.586Z,100587.25
2022-10-21T10:48:40.165Z,100591.59
2022-10-21T10:51:31.197Z,100581.16
2022-10-21T10:54:07.006Z,100597.66
2022-10-21T10:56:51.800Z,100593.31
2022-10-21T10:59:39.292Z,100596.78
2022-10-21T11:02:12.897Z,100583.72
2022-10-21T11:04:49.452Z,100588.94
2022-10-21T11:07:35.675Z,100589.81
2022-10-21T11:10:07.643Z,100596.75
2022-10-21T11:12:34.713Z,100595.88
2022-10-21T11:15:02.037Z,100580.28
2022-10-21T11:17:38.888Z,100598.47
2022-10-21T11:20:22.683Z,100588.94
2022-10-21T11:23:14.419Z,100590.63
2022-10-21T11:26:01.989Z,100584.59
2022-10-21T11:28:48.341Z,100610.63
2022-10-21T11:31:21.808Z,100607.97
2022-10-21T11:34:18.594Z,100602.75
2022-10-21T11:36:51.312Z,100605.38
2022-10-21T11:39:30.843Z,100596.66
2022-10-21T11:42:07.113Z,100597.50
2022-10-21T11:45:11.018Z,100600.06
2022-10-21T11:47:57.217Z,100589.59
2022-10-21T11:50:32.938Z,100587.81
2022-10-21T11:53:12.483Z,100580.75
2022-10-21T11:55:47.720Z,100587.69
2022-10-21T11:58:32.618Z,100578.06
2022-10-21T12:01:32.928Z,100582.34
2022-10-21T12:04:29.434Z,100582.28
2022-10-21T12:07:08.933Z,100584.84
2022-10-21T12:09:49.244Z,100573.47
2022-10-21T12:12:21.555Z,100573.41
2022-10-21T12:14:57.912Z,100565.59
2022-10-21T12:17:26.041Z,100560.38
2022-10-21T12:20:15.807Z,100555.09
2022-10-21T12:22:43.750Z,100547.22
2022-10-21T12:25:13.416Z,100574.13
2022-10-21T12:27:52.294Z,100576.63
2022-10-21T12:30:25.053Z,100572.31
2022-10-21T12:33:00.641Z,100569.75
2022-10-21T12:38:40.205Z,100574.03
2022-10-21T12:41:34.645Z,100573.94
2022-10-21T12:44:01.728Z,100579.09
2022-10-21T12:46:37.516Z,100580.00
2022-10-21T12:49:19.011Z,100580.88
2022-10-21T12:51:55.785Z,100577.38
2022-10-21T12:54:41.579Z,100568.66
2022-10-21T12:57:11.441Z,100575.59
2022-10-21T12:59:43.431Z,100572.97
2022-10-21T13:02:24.284Z,100573.78
2022-10-21T13:04:53.833Z,100572.06
2022-10-21T13:07:34.816Z,100574.66
2022-10-21T13:10:01.789Z,100573.75
2022-10-21T13:12:32.613Z,100568.53
2022-10-21T13:15:22.230Z,100563.25
2022-10-21T13:17:57.197Z,100560.66
2022-10-21T13:20:25.174Z,100568.53
2022-10-21T13:23:01.981Z,100567.66
2022-10-21T13:25:35.230Z,100565.00
2022-10-21T13:28:17.826Z,100569.31
2022-10-21T13:30:50.605Z,100561.44
2022-10-21T13:33:22.703Z,100563.13
2022-10-21T13:35:53.985Z,100568.25
2022-10-21T13:38:33.314Z,100568.16
2022-10-21T13:41:07.112Z,100572.53
2022-10-21T13:43:44.853Z,100556.81
2022-10-21T13:46:21.424Z,100577.47
2022-10-21T13:48:49.042Z,100580.03
2022-10-21T13:51:45.160Z,100581.66
2022-10-21T13:54:14.995Z,100582.38
2022-10-21T13:56:43.126Z,100585.81
2022-10-21T13:59:34.533Z,100573.59
2022-10-21T14:02:03.605Z,100577.84
2022-10-21T14:04:33.962Z,100579.44
2022-10-21T14:07:06.136Z,100581.00
2022-10-21T14:09:40.206Z,100580.13
2022-10-21T14:12:25.378Z,100591.38
2022-10-21T14:14:55.818Z,100589.66
2022-10-21T14:17:25.831Z,100575.00
2022-10-21T14:20:07.690Z,100585.44
2022-10-21T14:22:34.807Z,100579.31
2022-10-21T14:25:02.978Z,100571.50
2022-10-21T14:27:33.576Z,100580.25
2022-10-21T14:30:07.252Z,100595.81
2022-10-21T14:32:34.229Z,100594.94
2022-10-21T14:35:26.598Z,100597.50
2022-10-21T14:37:59.102Z,100587.03
2022-10-21T14:40:39.505Z,100591.28
2022-10-21T14:43:12.158Z,100596.47
2022-10-21T14:45:46.539Z,100586.91
2022-10-21T14:48:36.711Z,100589.22
2022-10-21T14:51:08.405Z,100587.25
2022-10-21T14:53:57.228Z,100589.94
2022-10-21T14:56:40.276Z,100587.53
2022-10-21T14:59:21.983Z,100598.34
2022-10-21T15:01:49.418Z,100587.16
2022-10-21T15:05:01.665Z,100598.56
2022-10-21T15:07:34.567Z,100603.97
2022-10-21T15:10:04.369Z,100602.31
2022-10-21T15:12:41.570Z,100595.53
2022-10-21T15:15:39.914Z,100588.59
2022-10-21T15:18:23.467Z,100589.59
2022-10-21T15:21:02.569Z,100586.19
2022-10-21T15:23:37.722Z,100592.34
2022-10-21T15:26:32.670Z,100595.06
2022-10-21T15:29:11.539Z,100596.00
2022-10-21T15:31:38.674Z,100597.78
2022-10-21T15:34:06.290Z,100597.81
2022-10-21T15:36:33.292Z,100590.03
2022-10-21T15:39:05.336Z,100596.09
2022-10-21T15:41:35.564Z,100601.25
2022-10-21T15:44:14.635Z,100596.78
2022-10-21T15:46:46.327Z,100601.06
2022-10-21T15:49:22.392Z,100606.38
2022-10-21T15:51:50.459Z,100604.75
2022-10-21T15:54:18.970Z,100597.88
2022-10-21T15:56:49.570Z,100590.97
2022-10-21T15:59:23.112Z,100592.81
2022-10-21T16:01:51.136Z,100584.19
2022-10-21T16:04:18.728Z,100592.13
2022-10-21T16:06:49.909Z,100591.38
2022-10-21T16:09:23.046Z,100596.66
2022-10-21T16:11:59.525Z,100604.56
2022-10-21T16:14:33.184Z,100599.41
2022-10-21T16:17:03.011Z,100604.72
2022-10-21T16:19:31.764Z,100608.25
2022-10-21T16:21:58.772Z,100617.91
2022-10-21T16:24:26.860Z,100601.47
2022-10-21T16:26:53.912Z,100611.06
2022-10-21T16:29:24.097Z,100613.69
2022-10-21T16:31:51.983Z,100616.38
2022-10-21T16:34:19.342Z,100626.00
2022-10-21T16:36:46.672Z,100622.59
2022-10-21T16:39:15.888Z,100628.69
2022-10-21T16:41:42.913Z,100625.22
2022-10-21T16:44:10.073Z,100624.41
2022-10-21T16:46:46.385Z,100628.78
2022-10-21T16:49:15.818Z,100633.16
2022-10-21T16:51:45.914Z,100634.03
2022-10-21T16:54:13.300Z,100640.13
2022-10-21T16:56:40.461Z,100629.75
2022-10-21T16:59:07.972Z,100644.53
2022-10-21T17:01:35.109Z,100633.22
2022-10-21T17:04:02.164Z,100641.91
2022-10-21T17:06:31.500Z,100643.66
2022-10-21T17:08:58.613Z,100642.78
2022-10-21T17:11:38.053Z,100640.19
2022-10-21T17:14:08.003Z,100641.91
2022-10-21T17:16:35.046Z,100647.16
2022-10-21T17:19:02.251Z,100634.13
2022-10-21T17:21:32.429Z,100658.44
2022-10-21T17:24:02.332Z,100663.66
2022-10-21T17:26:31.765Z,100665.34
2022-10-21T17:28:58.812Z,100666.25
2022-10-21T17:31:28.504Z,100662.78
2022-10-21T17:33:58.328Z,100668.84
2022-10-21T17:36:25.331Z,100662.75
2022-10-21T17:38:53.077Z,100671.44
2022-10-21T17:41:20.474Z,100667.97
2022-10-21T17:43:48.009Z,100669.69
2022-10-21T17:46:19.988Z,100676.63
2022-10-21T17:48:51.065Z,100671.38
2022-10-21T17:51:18.908Z,100679.19
2022-10-21T17:53:49.861Z,100682.69
2022-10-21T17:56:16.997Z,100675.75
2022-10-21T17:58:44.138Z,100679.22
2022-10-21T18:01:13.343Z,100681.84
2022-10-21T18:03:40.488Z,100674.03
2022-10-21T18:06:10.674Z,100680.97
2022-10-21T18:08:37.842Z,100683.56
2022-10-21T18:11:14.408Z,100687.91
2022-10-21T18:13:42.209Z,100677.50
2022-10-21T18:16:14.098Z,100682.72
2022-10-21T18:21:19.243Z,100679.22
2022-10-21T18:23:49.283Z,100689.63
2022-10-21T18:26:19.912Z,100689.63
2022-10-21T18:28:51.471Z,100689.63
2022-10-21T18:31:21.042Z,100687.00
2022-10-21T18:33:48.787Z,100680.94
2022-10-21T18:36:18.063Z,100690.47
2022-10-21T18:38:45.114Z,100690.47
2022-10-21T18:41:20.428Z,100681.81
2022-10-21T18:43:51.452Z,100682.66
2022-10-21T18:46:19.721Z,100682.66
2022-10-21T18:48:47.543Z,100684.38
2022-10-21T18:51:16.436Z,100683.50
2022-10-21T18:53:46.115Z,100666.16
2022-10-21T18:56:16.793Z,100680.88
2022-10-21T18:58:44.649Z,100680.91
2022-10-21T19:01:15.284Z,100688.69
2022-10-21T19:03:43.683Z,100689.53
2022-10-21T19:06:18.253Z,100689.53
2022-10-21T19:08:46.990Z,100696.47
2022-10-21T19:11:14.368Z,100695.59
2022-10-21T19:13:41.624Z,100703.41
2022-10-21T19:16:09.159Z,100697.31
2022-10-21T19:18:36.495Z,100694.72
2022-10-21T19:21:04.877Z,100697.31
2022-10-21T19:23:33.716Z,100694.72
2022-10-21T19:26:06.180Z,100699.06
2022-10-21T19:28:35.228Z,100699.94
2022-10-21T19:31:02.546Z,100696.47
2022-10-21T19:33:33.243Z,100694.75
2022-10-21T19:36:04.809Z,100699.94
2022-10-21T19:38:50.521Z,100701.69
2022-10-21T19:41:22.261Z,100699.94
2022-10-21T19:43:51.752Z,100701.69
2022-10-21T19:46:24.851Z,100705.16
2022-10-21T19:48:53.886Z,100704.28
2022-10-21T19:51:23.312Z,100713.81
2022-10-21T19:53:51.234Z,100705.16
2022-10-21T19:56:22.265Z,100707.75
2022-10-21T19:58:53.101Z,100713.84
2022-10-21T20:01:25.704Z,100705.16
2022-10-21T20:03:53.814Z,100714.72
2022-10-21T20:06:30.576Z,100704.28
2022-10-21T20:09:01.824Z,100712.13
2022-10-21T20:11:31.984Z,100714.69
2022-10-21T20:14:00.754Z,100719.00
2022-10-21T20:16:36.365Z,100711.22
2022-10-21T20:19:05.527Z,100712.91
2022-10-21T20:21:34.460Z,100712.97
2022-10-21T20:24:02.280Z,100713.81
2022-10-21T20:26:31.839Z,100703.38
2022-10-21T20:29:01.921Z,100725.09
2022-10-21T20:31:30.980Z,100722.47
2022-10-21T20:33:58.016Z,100717.22
2022-10-21T20:36:34.939Z,100717.22
2022-10-21T20:39:03.127Z,100711.97
2022-10-21T20:41:34.599Z,100739.75
2022-10-21T20:44:03.316Z,100724.94
2022-10-21T20:46:36.003Z,100724.94
2022-10-21T20:49:06.752Z,100731.91
2022-10-21T20:51:34.881Z,100737.94
2022-10-21T20:54:08.047Z,100741.44
2022-10-21T20:56:39.738Z,100735.34
2022-10-21T20:59:08.998Z,100740.53
2022-10-21T21:01:41.891Z,100738.78
2022-10-21T21:04:12.471Z,100738.81
2022-10-21T21:06:44.661Z,100744.88
2022-10-21T21:12:04.400Z,100743.13
2022-10-21T21:14:32.452Z,100743.06
2022-10-21T21:16:59.766Z,100736.97
2022-10-21T21:19:27.502Z,100744.78
2022-10-21T21:21:54.640Z,100748.25
2022-10-21T21:24:21.730Z,100744.78
2022-10-21T21:26:48.837Z,100746.50
2022-10-21T21:29:15.847Z,100749.97
2022-10-21T21:31:43.691Z,100743.00
2022-10-21T21:34:11.024Z,100742.09
2022-10-21T21:36:38.052Z,100753.41
2022-10-21T21:39:06.589Z,100756.88
2022-10-21T21:41:34.533Z,100756.00
2022-10-21T21:44:01.947Z,100758.59
2022-10-21T21:46:29.388Z,100762.09
2022-10-21T21:49:05.136Z,100754.28
2022-10-21T21:51:34.496Z,100761.19
2022-10-21T21:54:03.498Z,100749.88
2022-10-21T21:56:31.891Z,100762.06
2022-10-21T21:59:00.936Z,100767.25
2022-10-21T22:01:31.350Z,100761.19
2022-10-21T22:03:58.591Z,100759.44
2022-10-21T22:06:28.535Z,100764.66
2022-10-21T22:08:55.872Z,100755.97
2022-10-21T22:11:26.017Z,100761.19
2022-10-21T22:13:53.758Z,100755.97
2022-10-21T22:16:24.166Z,100760.31
2022-10-21T22:18:51.377Z,100755.97
2022-10-21T22:21:19.084Z,100755.06
2022-10-21T22:23:47.951Z,100759.41
2022-10-21T22:26:16.160Z,100755.06
2022-10-21T22:28:43.624Z,100761.13
2022-10-21T22:31:13.530Z,100752.44
2022-10-21T22:33:41.507Z,100755.03
2022-10-21T22:36:08.891Z,100746.38
2022-10-21T22:38:36.206Z,100769.78
2022-10-21T22:41:07.144Z,100741.97
2022-10-21T22:43:36.879Z,100759.34
2022-10-21T22:46:09.868Z,100760.16
2022-10-21T22:48:49.044Z,100763.66
2022-10-21T22:51:16.072Z,100760.19
2022-10-21T22:53:43.060Z,100761.94
2022-10-21T22:56:10.562Z,100753.25
2022-10-21T22:58:37.710Z,100751.53
2022-10-21T23:01:09.683Z,100759.28
2022-10-21T23:03:36.806Z,100759.28
2022-10-21T23:06:04.061Z,100754.97
2022-10-21T23:08:32.401Z,100758.41
2022-10-21T23:11:01.252Z,100759.28
2022-10-21T23:13:28.255Z,100759.28
2022-10-21T23:15:55.346Z,100760.97
2022-10-21T23:18:22.360Z,100761.84
2022-10-21T23:20:49.427Z,100751.44
2022-10-21T23:23:16.483Z,100746.25
2022-10-21T23:25:43.817Z,100751.44
2022-10-21T23:28:11.046Z,100746.25
2022-10-21T23:30:38.615Z,100749.69
2022-10-21T23:33:05.641Z,100749.66
2022-10-21T23:35:32.668Z,100746.16
2022-10-21T23:38:00.727Z,100749.63
2022-10-21T23:40:27.971Z,100753.09
2022-10-21T23:42:55.142Z,100752.25
2022-10-21T23:45:22.459Z,100759.19
2022-10-21T23:47:49.537Z,100752.25
2022-10-21T23:50:16.668Z,100747.06
2022-10-21T23:52:43.675Z,100751.44
2022-10-21T23:55:11.056Z,100748.84
2022-10-21T23:57:38.301Z,100740.16
